ストックホルム/アーランダ の空港の天気 - METARとTAF

ストックホルム・アーランダ空港 ( ESSA / ARN ) - スウェーデン ストックホルム
飛行場実況気象(Metar)
観測時間01/20 18:50 CET (01/20 17:50 UTC)
風向・風速西 3m/s
視程10km以上
天気現象
なし
気温3℃
湿度87%
気圧1019hPa
METARESSA 201750Z 27006KT CAVOK 03/01 Q1019 R01L/29//67 R08/29//70 R01R/29//70 NOSIG
過去の天気等 Google飛行場航空写真 Wunderground天気予報

過去48時間のMETAR

飛行場予報(TAF)
発表時間: 1/20 18:30 CET (1/20 17:30 UTC)
予報対象時間: 20日19時 CET ~ 21日19時 CET
風向・風速西 4m/s
視程10km以上
なし
21日4時 CET から 確率 40% で
視程400m
天気現象散在した霧
TAF ESSA 201730Z 2018/2118 27008KT CAVOK
PROB40 2103/2108 0400 BCFG